createdAt,value
2023-01-29T00:00:52.350Z,-3.70
2023-01-29T00:06:00.839Z,-3.80
2023-01-29T00:11:10.584Z,-3.70
2023-01-29T00:16:17.199Z,-3.70
2023-01-29T00:21:24.919Z,-3.80
2023-01-29T00:26:32.575Z,-3.60
2023-01-29T00:31:39.353Z,-3.70
2023-01-29T00:36:46.615Z,-3.70
2023-01-29T00:42:12.248Z,-3.60
2023-01-29T00:47:34.160Z,-3.60
2023-01-29T00:52:44.602Z,-3.50
2023-01-29T00:57:51.494Z,-3.50
2023-01-29T01:03:06.989Z,-3.50
2023-01-29T01:08:32.015Z,-3.50
2023-01-29T01:13:40.212Z,-3.60
2023-01-29T01:18:47.755Z,-3.70
2023-01-29T01:23:54.993Z,-3.40
2023-01-29T01:29:02.344Z,-3.30
2023-01-29T01:34:09.657Z,-3.40
2023-01-29T01:39:18.616Z,-3.30
2023-01-29T01:45:01.546Z,-3.20
2023-01-29T01:50:18.780Z,-3.30
2023-01-29T01:55:29.360Z,-3.40
2023-01-29T02:00:37.587Z,-3.50
2023-01-29T02:06:02.625Z,-3.40
2023-01-29T02:11:12.635Z,-3.50
2023-01-29T02:16:20.959Z,-3.50
2023-01-29T02:21:56.619Z,-3.50
2023-01-29T02:27:10.818Z,-3.50
2023-01-29T02:32:32.874Z,-3.30
2023-01-29T02:38:00.630Z,-3.40
2023-01-29T02:43:13.555Z,-3.20
2023-01-29T02:48:25.220Z,-3.20
2023-01-29T02:53:55.584Z,-3.30
2023-01-29T02:59:06.754Z,-3.40
2023-01-29T03:04:18.261Z,-3.40
2023-01-29T03:09:39.071Z,-3.50
2023-01-29T03:15:06.570Z,-3.40
2023-01-29T03:20:18.489Z,-3.40
2023-01-29T03:25:46.801Z,-3.20
2023-01-29T03:31:18.498Z,-3.50
2023-01-29T03:36:35.020Z,-3.70
2023-01-29T03:42:06.223Z,-3.80
2023-01-29T03:47:40.529Z,-3.80
2023-01-29T03:53:06.630Z,-3.90
2023-01-29T03:58:48.199Z,-4.10
2023-01-29T04:04:27.975Z,-4.40
2023-01-29T04:09:42.029Z,-4.70
2023-01-29T04:14:51.282Z,-4.80
2023-01-29T04:19:58.607Z,-5.10
2023-01-29T04:25:10.602Z,-5.00
2023-01-29T04:30:28.202Z,-5.00
2023-01-29T04:35:47.830Z,-5.30
2023-01-29T04:41:09.123Z,-5.30
2023-01-29T04:46:29.398Z,-5.30
2023-01-29T04:52:05.657Z,-5.50
2023-01-29T04:57:26.502Z,-5.60
2023-01-29T05:02:37.929Z,-5.60
2023-01-29T05:07:47.173Z,-5.80
2023-01-29T05:12:59.355Z,-5.90
2023-01-29T05:18:09.226Z,-5.70
2023-01-29T05:23:22.268Z,-6.30
2023-01-29T05:28:29.622Z,-6.10
2023-01-29T05:33:36.918Z,-5.90
2023-01-29T05:38:44.706Z,-6.00
2023-01-29T05:43:51.470Z,-6.10
2023-01-29T05:48:58.455Z,-6.50
2023-01-29T05:54:06.530Z,-6.50
2023-01-29T05:59:17.049Z,-6.60
2023-01-29T06:04:23.720Z,-6.90
2023-01-29T06:09:32.088Z,-6.70
2023-01-29T06:14:39.387Z,-7.10
2023-01-29T06:19:46.885Z,-7.00
2023-01-29T06:24:54.074Z,-6.90
2023-01-29T06:30:03.185Z,-7.30
2023-01-29T06:35:11.045Z,-7.20
2023-01-29T06:40:20.171Z,-6.90
2023-01-29T06:45:28.686Z,-6.70
2023-01-29T06:50:36.392Z,-6.90
2023-01-29T06:55:43.048Z,-7.10
2023-01-29T07:00:50.879Z,-7.10
2023-01-29T07:06:00.699Z,-7.50
2023-01-29T07:11:10.739Z,-7.10
2023-01-29T07:16:18.406Z,-6.50
2023-01-29T07:21:27.579Z,-6.60
2023-01-29T07:26:36.651Z,-6.70
2023-01-29T07:31:44.175Z,-6.60
2023-01-29T07:36:53.221Z,-6.30
2023-01-29T07:42:00.332Z,-6.20
2023-01-29T07:47:10.394Z,-6.80
2023-01-29T07:52:22.520Z,-6.60
2023-01-29T07:57:30.848Z,-6.30
2023-01-29T08:02:39.119Z,-6.20
2023-01-29T08:08:00.865Z,-5.80
2023-01-29T08:13:04.522Z,-6.30
2023-01-29T08:18:11.396Z,-6.10
2023-01-29T08:23:19.669Z,-5.90
2023-01-29T08:28:26.805Z,-5.70
2023-01-29T08:33:39.147Z,-5.40
2023-01-29T08:38:44.653Z,-5.40
2023-01-29T08:43:53.652Z,-5.00
2023-01-29T08:49:03.836Z,-5.20
2023-01-29T08:54:10.839Z,-5.10
2023-01-29T08:59:19.309Z,-4.60
2023-01-29T09:04:27.048Z,-4.00
2023-01-29T09:09:33.916Z,-3.70
2023-01-29T09:14:41.526Z,-2.80
2023-01-29T09:19:48.645Z,-2.40
2023-01-29T09:24:55.304Z,-2.10
2023-01-29T09:30:03.395Z,-2.40
2023-01-29T09:35:11.219Z,-2.70
2023-01-29T09:40:46.533Z,-2.50
2023-01-29T09:46:03.177Z,-2.00
2023-01-29T09:51:14.064Z,-2.00
2023-01-29T09:56:23.901Z,-1.30
2023-01-29T10:01:51.313Z,-1.10
2023-01-29T10:07:20.658Z,-0.90
2023-01-29T10:12:50.086Z,-0.80
2023-01-29T10:18:30.161Z,-0.50
2023-01-29T10:23:49.461Z,-0.40
2023-01-29T10:28:58.723Z,-0.10
2023-01-29T10:34:18.700Z,0.20
2023-01-29T10:39:27.881Z,0.30
2023-01-29T10:44:49.208Z,0.20
2023-01-29T10:50:21.135Z,0.50
2023-01-29T10:56:21.981Z,0.60
2023-01-29T11:01:20.873Z,0.70
2023-01-29T11:06:35.452Z,0.50
2023-01-29T11:12:02.169Z,0.50
2023-01-29T11:17:18.416Z,0.80
2023-01-29T11:22:28.920Z,1.00
2023-01-29T11:27:46.061Z,0.80
2023-01-29T11:33:01.473Z,1.00
2023-01-29T11:38:30.773Z,1.00
2023-01-29T11:43:38.959Z,1.10
2023-01-29T11:48:50.554Z,1.10
2023-01-29T11:54:03.349Z,1.20
2023-01-29T11:59:30.732Z,0.90
2023-01-29T12:04:41.223Z,0.60
2023-01-29T12:10:00.875Z,0.70
2023-01-29T12:15:21.085Z,0.70
2023-01-29T12:20:44.684Z,0.70
2023-01-29T12:26:08.513Z,0.60
2023-01-29T12:31:39.942Z,0.80
2023-01-29T12:36:56.877Z,0.90
2023-01-29T12:42:18.182Z,0.90
2023-01-29T12:47:38.735Z,1.10
2023-01-29T12:52:50.043Z,1.20
2023-01-29T12:58:05.426Z,1.30
2023-01-29T13:03:37.157Z,1.40
2023-01-29T13:08:53.932Z,1.30
2023-01-29T13:14:26.643Z,1.50
2023-01-29T13:19:46.694Z,1.80
2023-01-29T13:25:04.684Z,2.00
2023-01-29T13:30:06.069Z,1.90
2023-01-29T13:35:19.109Z,1.50
2023-01-29T13:40:35.181Z,1.30
2023-01-29T13:45:48.102Z,1.50
2023-01-29T13:50:57.817Z,1.60
2023-01-29T13:56:37.829Z,1.50
2023-01-29T14:01:55.331Z,1.50
2023-01-29T14:07:03.986Z,1.50
2023-01-29T14:12:27.397Z,1.50
2023-01-29T14:17:34.928Z,1.50
2023-01-29T14:22:42.516Z,1.50
2023-01-29T14:27:50.846Z,1.40
2023-01-29T14:32:57.877Z,1.40
2023-01-29T14:38:08.435Z,1.40
2023-01-29T14:43:23.899Z,1.30
2023-01-29T14:48:50.172Z,1.00
2023-01-29T14:54:22.621Z,1.20
2023-01-29T14:59:37.806Z,1.20
2023-01-29T15:04:51.094Z,1.20
2023-01-29T15:10:23.225Z,1.30
2023-01-29T15:16:17.401Z,1.20
2023-01-29T15:21:25.110Z,0.80
2023-01-29T15:26:32.192Z,0.90
2023-01-29T15:31:43.140Z,0.90
2023-01-29T15:36:51.303Z,1.00
2023-01-29T15:42:12.636Z,1.00
2023-01-29T15:47:22.799Z,1.00
2023-01-29T15:52:35.242Z,1.10
2023-01-29T15:57:43.759Z,0.90
2023-01-29T16:02:51.327Z,0.90
2023-01-29T16:08:00.142Z,0.90
2023-01-29T16:13:07.369Z,0.80
2023-01-29T16:18:35.250Z,0.60
2023-01-29T16:23:49.213Z,0.40
2023-01-29T16:29:08.499Z,0.40
2023-01-29T16:34:33.483Z,0.50
2023-01-29T16:39:45.986Z,0.60
2023-01-29T16:44:57.045Z,0.60
2023-01-29T16:50:46.233Z,0.60
2023-01-29T16:55:49.966Z,0.50
2023-01-29T17:01:03.618Z,0.40
2023-01-29T17:06:22.237Z,0.40
2023-01-29T17:11:41.906Z,0.40
2023-01-29T17:16:57.247Z,0.20
2023-01-29T17:22:07.402Z,0.00
2023-01-29T17:27:23.790Z,0.00
2023-01-29T17:32:44.374Z,0.10
2023-01-29T17:37:41.650Z,0.20
2023-01-29T17:42:49.016Z,0.10
2023-01-29T17:47:55.959Z,0.20
2023-01-29T17:53:03.055Z,0.10
2023-01-29T17:58:20.612Z,0.30
2023-01-29T18:03:27.957Z,0.30
2023-01-29T18:08:38.832Z,0.30
2023-01-29T18:13:45.789Z,0.30
2023-01-29T18:18:53.741Z,0.40
2023-01-29T18:24:01.135Z,0.20
2023-01-29T18:29:10.326Z,0.00
2023-01-29T18:34:17.043Z,0.00
2023-01-29T18:39:24.859Z,0.20
2023-01-29T18:44:32.043Z,0.10
2023-01-29T18:49:40.209Z,0.00
2023-01-29T18:54:47.210Z,-0.10
2023-01-29T18:59:54.975Z,-0.20
2023-01-29T19:05:01.837Z,-0.20
2023-01-29T19:10:11.169Z,-0.20
2023-01-29T19:15:19.802Z,-0.10
2023-01-29T19:20:27.903Z,-0.20
2023-01-29T19:25:40.338Z,-0.20
2023-01-29T19:30:49.963Z,-0.40
2023-01-29T19:36:00.799Z,-0.60
2023-01-29T19:41:10.213Z,-0.40
2023-01-29T19:46:17.968Z,-0.60
2023-01-29T19:51:29.319Z,-0.70
2023-01-29T19:56:38.170Z,-0.70
2023-01-29T20:01:45.580Z,-0.60
2023-01-29T20:06:54.039Z,-0.80
2023-01-29T20:12:02.719Z,-1.00
2023-01-29T20:17:09.451Z,-1.00
2023-01-29T20:22:16.653Z,-1.20
2023-01-29T20:27:24.317Z,-1.30
2023-01-29T20:32:33.255Z,-1.20
2023-01-29T20:37:40.763Z,-1.30
2023-01-29T20:42:48.047Z,-1.40
2023-01-29T20:47:55.797Z,-1.50
2023-01-29T20:53:04.481Z,-1.40
2023-01-29T20:58:11.784Z,-1.90
2023-01-29T21:03:17.726Z,-1.70
2023-01-29T21:08:26.946Z,-1.60
2023-01-29T21:13:34.847Z,-1.90
2023-01-29T21:18:42.759Z,-2.30
2023-01-29T21:23:50.913Z,-2.00
2023-01-29T21:28:57.913Z,-2.20
2023-01-29T21:34:07.634Z,-2.30
2023-01-29T21:39:21.319Z,-2.50
2023-01-29T21:44:28.814Z,-2.70
2023-01-29T21:49:36.699Z,-2.70
2023-01-29T21:54:46.196Z,-2.60
2023-01-29T21:59:55.988Z,-2.80
2023-01-29T22:05:18.023Z,-3.00
2023-01-29T22:10:13.866Z,-3.30
2023-01-29T22:15:23.772Z,-3.30
2023-01-29T22:20:34.250Z,-3.90
2023-01-29T22:25:44.141Z,-3.80
2023-01-29T22:30:52.526Z,-3.60
2023-01-29T22:36:00.398Z,-3.70
2023-01-29T22:41:09.899Z,-3.60
2023-01-29T22:46:17.571Z,-3.20
2023-01-29T22:51:26.012Z,-3.70
2023-01-29T22:56:33.959Z,-3.50
2023-01-29T23:01:40.627Z,-3.60
2023-01-29T23:06:48.077Z,-3.80
2023-01-29T23:11:55.154Z,-3.70
2023-01-29T23:17:02.672Z,-4.00
2023-01-29T23:22:10.679Z,-4.00
2023-01-29T23:27:17.463Z,-4.10
2023-01-29T23:32:25.159Z,-4.50
2023-01-29T23:37:32.641Z,-4.10
2023-01-29T23:42:39.915Z,-4.50
2023-01-29T23:47:47.188Z,-4.50
2023-01-29T23:52:55.384Z,-4.50
2023-01-29T23:58:03.135Z,-4.30
